createdAt,value
2023-07-08T00:01:15.332Z,7.65
2023-07-08T00:03:42.698Z,7.38
2023-07-08T00:06:17.410Z,7.00
2023-07-08T00:08:44.254Z,6.70
2023-07-08T00:11:16.125Z,7.40
2023-07-08T00:13:43.322Z,7.10
2023-07-08T00:16:20.402Z,7.20
2023-07-08T00:18:48.356Z,7.28
2023-07-08T00:21:17.636Z,7.80
2023-07-08T00:23:52.252Z,7.65
2023-07-08T00:26:26.048Z,7.40
2023-07-08T00:28:54.005Z,7.45
2023-07-08T00:31:20.996Z,7.70
2023-07-08T00:33:48.150Z,8.10
2023-07-08T00:36:17.143Z,7.28
2023-07-08T00:38:45.070Z,7.80
2023-07-08T00:41:25.774Z,7.03
2023-07-08T00:43:55.374Z,7.85
2023-07-08T00:46:28.553Z,7.63
2023-07-08T00:49:10.508Z,7.18
2023-07-08T00:51:39.724Z,6.90
2023-07-08T00:54:17.478Z,7.65
2023-07-08T00:56:49.333Z,7.60
2023-07-08T00:59:28.180Z,7.20
2023-07-08T01:01:59.186Z,8.00
2023-07-08T01:04:33.625Z,7.43
2023-07-08T01:07:03.647Z,8.23
2023-07-08T01:09:37.615Z,7.38
2023-07-08T01:12:09.057Z,7.70
2023-07-08T01:14:39.044Z,7.47
2023-07-08T01:17:06.763Z,8.40
2023-07-08T01:19:33.869Z,8.00
2023-07-08T01:22:04.501Z,8.27
2023-07-08T01:24:32.766Z,7.73
2023-07-08T01:27:02.118Z,7.30
2023-07-08T01:29:29.076Z,8.00
2023-07-08T01:32:00.219Z,7.55
2023-07-08T01:34:27.416Z,8.15
2023-07-08T01:36:58.212Z,7.73
2023-07-08T01:39:26.783Z,8.07
2023-07-08T01:41:53.623Z,8.07
2023-07-08T01:44:29.893Z,11.07
2023-07-08T01:47:05.351Z,11.10
2023-07-08T01:49:35.075Z,10.50
2023-07-08T01:52:03.125Z,10.02
2023-07-08T01:54:30.204Z,9.20
2023-07-08T01:57:00.542Z,8.98
2023-07-08T01:59:27.433Z,8.82
2023-07-08T02:01:54.499Z,8.53
2023-07-08T02:04:22.607Z,9.77
2023-07-08T02:06:54.556Z,9.60
2023-07-08T02:09:21.921Z,9.98
2023-07-08T02:11:48.935Z,9.60
2023-07-08T02:14:15.762Z,9.37
2023-07-08T02:16:42.592Z,9.40
2023-07-08T02:19:13.980Z,9.90
2023-07-08T02:21:41.211Z,9.50
2023-07-08T02:24:08.984Z,10.32
2023-07-08T02:26:35.847Z,9.13
2023-07-08T02:29:02.894Z,9.60
2023-07-08T02:31:29.798Z,10.18
2023-07-08T02:33:56.659Z,9.40
2023-07-08T02:36:23.547Z,9.40
2023-07-08T02:38:50.590Z,10.33
2023-07-08T02:41:17.855Z,9.90
2023-07-08T02:43:44.703Z,9.23
2023-07-08T02:46:11.719Z,9.23
2023-07-08T02:48:38.775Z,9.18
2023-07-08T02:51:07.373Z,9.10
2023-07-08T02:53:34.329Z,9.50
2023-07-08T02:56:01.194Z,9.15
2023-07-08T02:58:28.063Z,9.15
2023-07-08T03:00:56.478Z,9.88
2023-07-08T03:03:23.627Z,9.90
2023-07-08T03:06:02.062Z,9.45
2023-07-08T03:08:29.524Z,9.52
2023-07-08T03:11:02.433Z,9.23
2023-07-08T03:13:30.350Z,9.10
2023-07-08T03:15:58.880Z,9.20
2023-07-08T03:18:26.561Z,8.88
2023-07-08T03:20:58.233Z,9.35
2023-07-08T03:23:26.343Z,9.35
2023-07-08T03:25:53.568Z,9.10
2023-07-08T03:28:20.424Z,9.37
2023-07-08T03:30:53.729Z,9.10
2023-07-08T03:33:21.342Z,9.02
2023-07-08T03:35:48.551Z,9.20
2023-07-08T03:38:15.576Z,9.07
2023-07-08T03:40:42.542Z,8.90
2023-07-08T03:43:09.422Z,8.35
2023-07-08T03:45:36.417Z,8.77
2023-07-08T03:48:03.482Z,8.52
2023-07-08T03:50:30.377Z,8.07
2023-07-08T03:52:57.924Z,8.77
2023-07-08T03:55:24.878Z,7.53
2023-07-08T03:57:51.664Z,8.60
2023-07-08T04:00:18.775Z,9.85
2023-07-08T04:02:47.092Z,9.95
2023-07-08T04:05:18.025Z,10.33
2023-07-08T04:07:45.150Z,9.35
2023-07-08T04:10:12.579Z,10.00
2023-07-08T04:12:40.132Z,9.77
2023-07-08T04:15:09.992Z,8.70
2023-07-08T04:17:42.611Z,10.10
2023-07-08T04:20:10.486Z,9.82
2023-07-08T04:22:37.912Z,10.27
2023-07-08T04:25:05.227Z,10.60
2023-07-08T04:27:32.145Z,9.85
2023-07-08T04:29:59.383Z,7.70
2023-07-08T04:32:26.402Z,7.50
2023-07-08T04:34:53.974Z,8.27
2023-07-08T04:37:21.072Z,8.13
2023-07-08T04:39:48.346Z,9.30
2023-07-08T04:42:16.100Z,10.60
2023-07-08T04:44:43.490Z,10.57
2023-07-08T04:47:10.368Z,10.05
2023-07-08T04:49:37.248Z,9.02
2023-07-08T04:52:04.447Z,11.80
2023-07-08T04:54:31.367Z,11.07
2023-07-08T04:56:58.314Z,8.82
2023-07-08T04:59:26.506Z,7.97
2023-07-08T05:01:54.422Z,7.28
2023-07-08T05:04:23.039Z,8.75
2023-07-08T05:06:50.844Z,8.13
2023-07-08T05:09:18.268Z,7.80
2023-07-08T05:11:45.774Z,8.43
2023-07-08T05:14:14.465Z,8.63
2023-07-08T05:16:41.634Z,7.68
2023-07-08T05:19:09.158Z,8.63
2023-07-08T05:21:36.112Z,7.68
2023-07-08T05:24:04.576Z,7.88
2023-07-08T05:26:32.007Z,7.78
2023-07-08T05:28:58.799Z,7.30
2023-07-08T05:31:38.101Z,7.73
2023-07-08T05:34:12.703Z,7.70
2023-07-08T05:36:39.598Z,7.60
2023-07-08T05:39:06.486Z,8.10
2023-07-08T05:41:33.449Z,8.60
2023-07-08T05:44:00.354Z,8.33
2023-07-08T05:46:27.458Z,8.10
2023-07-08T05:48:54.562Z,8.50
2023-07-08T05:51:22.010Z,8.90
2023-07-08T05:53:49.067Z,7.22
2023-07-08T05:56:16.258Z,8.10
2023-07-08T05:58:43.261Z,8.00
2023-07-08T06:01:12.308Z,7.20
2023-07-08T06:03:42.439Z,7.35
2023-07-08T06:06:09.424Z,7.82
2023-07-08T06:08:36.412Z,7.57
2023-07-08T06:11:03.972Z,9.10
2023-07-08T06:13:31.224Z,8.73
2023-07-08T06:15:58.236Z,7.72
2023-07-08T06:18:25.308Z,7.93
2023-07-08T06:20:56.683Z,7.83
2023-07-08T06:23:23.885Z,7.30
2023-07-08T06:25:51.565Z,7.93
2023-07-08T06:28:18.885Z,7.00
2023-07-08T06:30:45.714Z,8.05
2023-07-08T06:33:15.124Z,7.77
2023-07-08T06:35:42.412Z,7.35
2023-07-08T06:38:09.584Z,7.53
2023-07-08T06:40:36.786Z,7.70
2023-07-08T06:43:04.511Z,7.95
2023-07-08T06:45:34.395Z,7.43
2023-07-08T06:48:04.229Z,7.85
2023-07-08T06:50:33.732Z,8.30
2023-07-08T06:53:03.115Z,7.15
2023-07-08T06:55:30.121Z,7.55
2023-07-08T06:57:57.106Z,7.70
2023-07-08T07:00:24.036Z,7.22
2023-07-08T07:02:54.111Z,7.53
2023-07-08T07:05:23.428Z,7.13
2023-07-08T07:07:51.052Z,7.40
2023-07-08T07:10:17.949Z,7.30
2023-07-08T07:12:44.900Z,7.80
2023-07-08T07:15:11.889Z,7.47
2023-07-08T07:17:39.261Z,8.07
2023-07-08T07:20:06.864Z,7.82
2023-07-08T07:22:33.883Z,7.00
2023-07-08T07:25:07.509Z,8.05
2023-07-08T07:27:34.394Z,7.88
2023-07-08T07:30:06.516Z,8.10
2023-07-08T07:32:33.545Z,8.13
2023-07-08T07:35:00.407Z,7.03
2023-07-08T07:37:27.249Z,7.32
2023-07-08T07:39:54.348Z,6.35
2023-07-08T07:42:21.422Z,5.78
2023-07-08T07:44:48.599Z,6.70
2023-07-08T07:47:16.203Z,7.70
2023-07-08T07:49:43.054Z,7.15
2023-07-08T07:52:09.998Z,6.88
2023-07-08T07:54:36.989Z,7.40
2023-07-08T07:57:03.981Z,7.40
2023-07-08T07:59:30.947Z,7.63
2023-07-08T08:01:58.022Z,6.05
2023-07-08T08:04:24.923Z,6.63
2023-07-08T08:06:51.836Z,6.13
2023-07-08T08:09:18.758Z,6.85
2023-07-08T08:11:45.694Z,6.40
2023-07-08T08:14:12.849Z,6.30
2023-07-08T08:16:39.950Z,6.63
2023-07-08T08:19:09.503Z,6.05
2023-07-08T08:21:39.333Z,7.13
2023-07-08T08:24:06.623Z,6.47
2023-07-08T08:26:33.644Z,7.40
2023-07-08T08:29:05.009Z,7.10
2023-07-08T08:31:32.245Z,8.30
2023-07-08T08:33:59.269Z,8.00
2023-07-08T08:36:26.439Z,7.10
2023-07-08T08:38:53.433Z,7.68
2023-07-08T08:41:27.223Z,6.10
2023-07-08T08:43:56.503Z,6.10
2023-07-08T08:46:59.858Z,5.70
2023-07-08T08:49:33.892Z,6.27
2023-07-08T08:52:01.088Z,6.30
2023-07-08T08:54:31.445Z,6.28
2023-07-08T08:57:21.281Z,6.22
2023-07-08T08:59:55.995Z,6.65
2023-07-08T09:02:35.015Z,6.10
2023-07-08T09:05:08.505Z,6.13
2023-07-08T09:08:01.693Z,6.03
2023-07-08T09:11:01.455Z,6.30
2023-07-08T09:13:37.556Z,6.00
2023-07-08T09:16:46.489Z,5.90
2023-07-08T09:19:16.240Z,5.60
2023-07-08T09:21:59.469Z,5.55
2023-07-08T09:25:12.804Z,5.13
2023-07-08T09:27:39.839Z,5.70
2023-07-08T09:30:15.202Z,4.80
2023-07-08T09:32:42.282Z,4.80
2023-07-08T09:35:17.524Z,5.63
2023-07-08T09:37:48.463Z,5.63
2023-07-08T09:40:19.580Z,5.97
2023-07-08T09:42:51.555Z,5.93
2023-07-08T09:45:24.754Z,5.90
2023-07-08T09:47:58.068Z,7.82
2023-07-08T09:50:29.362Z,7.28
2023-07-08T09:53:01.450Z,6.93
2023-07-08T09:55:31.161Z,8.93
2023-07-08T09:58:00.854Z,5.90
2023-07-08T10:00:33.964Z,5.82
2023-07-08T10:03:07.231Z,6.05
2023-07-08T10:05:38.959Z,6.15
2023-07-08T10:08:29.293Z,7.07
2023-07-08T10:11:13.860Z,6.60
2023-07-08T10:13:45.723Z,6.65
2023-07-08T10:16:28.578Z,11.48
2023-07-08T10:18:56.061Z,6.78
2023-07-08T10:21:22.975Z,6.63
2023-07-08T10:23:50.042Z,5.88
2023-07-08T10:26:31.470Z,4.70
2023-07-08T10:29:17.050Z,5.20
2023-07-08T10:32:03.836Z,4.78
2023-07-08T10:35:05.036Z,4.70
2023-07-08T10:38:06.873Z,4.63
2023-07-08T10:40:50.828Z,4.75
2023-07-08T10:43:49.508Z,4.80
2023-07-08T10:46:27.686Z,5.75
2023-07-08T10:49:31.928Z,5.60
2023-07-08T10:52:17.218Z,4.75
2023-07-08T10:55:00.236Z,4.93
2023-07-08T10:58:02.008Z,4.32
2023-07-08T11:00:38.121Z,4.68
2023-07-08T11:03:23.665Z,4.70
2023-07-08T11:06:03.794Z,5.22
2023-07-08T11:08:40.875Z,5.00
2023-07-08T11:11:15.549Z,6.22
2023-07-08T11:13:54.354Z,5.97
2023-07-08T11:16:26.472Z,5.50
2023-07-08T11:19:11.475Z,5.32
2023-07-08T11:21:48.958Z,4.45
2023-07-08T11:24:31.021Z,4.55
2023-07-08T11:27:07.206Z,4.47
2023-07-08T11:30:12.814Z,4.20
2023-07-08T11:32:41.148Z,4.00
2023-07-08T11:35:19.992Z,4.10
2023-07-08T11:37:48.043Z,4.18
2023-07-08T11:40:25.158Z,4.00
2023-07-08T11:42:59.712Z,4.40
2023-07-08T11:45:32.850Z,4.70
2023-07-08T11:48:13.612Z,4.85
2023-07-08T11:50:45.889Z,4.65
2023-07-08T11:53:34.130Z,5.10
2023-07-08T11:56:19.553Z,3.70
2023-07-08T11:58:52.535Z,4.00
2023-07-08T12:01:30.296Z,4.03
2023-07-08T12:04:18.120Z,4.00
2023-07-08T12:06:50.315Z,3.80
2023-07-08T12:09:36.588Z,3.80
2023-07-08T12:12:11.607Z,3.70
2023-07-08T12:14:38.521Z,3.63
2023-07-08T12:17:11.192Z,3.85
2023-07-08T12:19:38.561Z,4.00
2023-07-08T12:22:05.842Z,4.00
2023-07-08T12:24:32.838Z,4.15
2023-07-08T12:26:59.860Z,4.30
2023-07-08T12:29:27.146Z,4.20
2023-07-08T12:31:54.075Z,3.60
2023-07-08T12:34:23.080Z,4.00
2023-07-08T12:36:50.911Z,4.20
2023-07-08T12:39:18.779Z,3.88
2023-07-08T12:41:47.566Z,3.90
2023-07-08T12:44:25.510Z,3.60
2023-07-08T12:46:55.264Z,4.10
2023-07-08T12:49:23.212Z,3.50
2023-07-08T12:51:50.247Z,3.42
2023-07-08T12:54:17.162Z,3.50
2023-07-08T12:56:46.759Z,3.92
2023-07-08T12:59:20.635Z,3.67
2023-07-08T13:01:49.390Z,3.30
2023-07-08T13:04:17.429Z,2.90
2023-07-08T13:06:47.255Z,3.00
2023-07-08T13:09:24.907Z,3.40
2023-07-08T13:11:53.268Z,3.40
2023-07-08T13:14:21.518Z,2.85
2023-07-08T13:16:48.995Z,2.70
2023-07-08T13:19:16.325Z,2.90
2023-07-08T13:21:43.382Z,3.03
2023-07-08T13:24:13.883Z,3.30
2023-07-08T13:26:45.848Z,3.38
2023-07-08T13:29:16.330Z,3.17
2023-07-08T13:31:49.383Z,3.40
2023-07-08T13:34:21.332Z,5.43
2023-07-08T13:36:52.117Z,5.93
2023-07-08T13:39:35.144Z,4.20
2023-07-08T13:42:02.686Z,3.45
2023-07-08T13:44:29.946Z,4.00
2023-07-08T13:47:01.279Z,3.10
2023-07-08T13:49:32.414Z,3.97
2023-07-08T13:52:25.396Z,3.20
2023-07-08T13:54:55.864Z,3.15
2023-07-08T13:57:30.537Z,3.10
2023-07-08T13:59:57.538Z,3.13
2023-07-08T14:02:30.788Z,3.10
2023-07-08T14:04:59.291Z,3.70
2023-07-08T14:07:31.995Z,3.38
2023-07-08T14:09:59.451Z,3.60
2023-07-08T14:12:26.578Z,6.00
2023-07-08T14:14:53.513Z,6.40
2023-07-08T14:17:25.993Z,4.03
2023-07-08T14:19:53.427Z,3.97
2023-07-08T14:22:31.124Z,3.05
2023-07-08T14:25:06.573Z,3.20
2023-07-08T14:27:33.631Z,2.90
2023-07-08T14:30:00.580Z,2.83
2023-07-08T14:32:32.768Z,3.20
2023-07-08T14:47:45.485Z,1.70
2023-07-08T14:50:15.806Z,1.60
2023-07-08T14:52:42.829Z,1.50
2023-07-08T14:55:10.981Z,1.45
2023-07-08T14:57:49.645Z,1.50
2023-07-08T15:00:19.112Z,2.15
2023-07-08T15:02:48.764Z,1.50
2023-07-08T15:05:25.527Z,2.60
2023-07-08T15:07:54.367Z,4.78
2023-07-08T15:10:24.927Z,1.98
2023-07-08T15:12:52.062Z,2.42
2023-07-08T15:15:28.768Z,3.00
2023-07-08T15:17:58.191Z,1.60
2023-07-08T15:20:26.609Z,4.38
2023-07-08T15:22:53.744Z,3.47
2023-07-08T15:25:20.741Z,3.08
2023-07-08T15:27:52.129Z,2.90
2023-07-08T15:30:25.806Z,1.80
2023-07-08T15:32:53.762Z,1.40
2023-07-08T15:35:29.191Z,1.48
2023-07-08T15:37:56.022Z,2.20
2023-07-08T15:40:24.352Z,1.83
2023-07-08T15:42:55.325Z,1.70
2023-07-08T15:45:29.423Z,1.60
2023-07-08T15:47:56.476Z,1.70
2023-07-08T15:50:27.551Z,1.77
2023-07-08T15:52:55.474Z,1.65
2023-07-08T15:55:26.674Z,1.90
2023-07-08T15:58:01.960Z,1.70
2023-07-08T16:00:32.849Z,2.00
2023-07-08T16:03:02.430Z,1.80
2023-07-08T16:05:29.782Z,1.98
2023-07-08T16:07:57.584Z,1.80
2023-07-08T16:10:26.410Z,2.63
2023-07-08T16:12:54.511Z,2.20
2023-07-08T16:15:33.187Z,2.05
2023-07-08T16:18:01.748Z,2.00
2023-07-08T16:20:30.429Z,2.10
2023-07-08T16:22:57.772Z,2.10
2023-07-08T16:25:51.468Z,2.20
2023-07-08T16:28:27.365Z,1.85
2023-07-08T16:30:54.734Z,1.70
2023-07-08T16:33:21.773Z,1.70
2023-07-08T16:35:48.822Z,1.40
2023-07-08T16:38:16.987Z,1.50
2023-07-08T16:40:44.260Z,1.50
2023-07-08T16:43:37.502Z,1.67
2023-07-08T16:46:04.424Z,1.30
2023-07-08T16:48:33.545Z,1.30
2023-07-08T16:51:00.776Z,1.25
2023-07-08T16:53:27.874Z,1.20
2023-07-08T16:55:54.820Z,1.38
2023-07-08T16:58:21.843Z,1.17
2023-07-08T17:00:49.227Z,1.20
2023-07-08T17:03:17.993Z,1.35
2023-07-08T17:05:45.271Z,1.40
2023-07-08T17:08:16.358Z,1.60
2023-07-08T17:10:44.123Z,1.90
2023-07-08T17:13:11.905Z,1.70
2023-07-08T17:15:39.734Z,1.83
2023-07-08T17:18:07.401Z,1.65
2023-07-08T17:20:39.879Z,1.95
2023-07-08T17:23:20.814Z,3.50
2023-07-08T17:25:50.552Z,2.27
2023-07-08T17:28:17.528Z,1.70
2023-07-08T17:30:51.214Z,1.75
2023-07-08T17:33:21.302Z,1.80
2023-07-08T17:35:48.870Z,1.48
2023-07-08T17:38:22.436Z,1.30
2023-07-08T17:40:49.412Z,1.40
2023-07-08T17:43:16.351Z,1.20
2023-07-08T17:45:45.970Z,1.33
2023-07-08T17:48:25.616Z,1.23
2023-07-08T17:50:53.980Z,1.33
2023-07-08T17:53:21.229Z,1.20
2023-07-08T17:55:51.338Z,1.15
2023-07-08T17:58:19.256Z,1.50
2023-07-08T18:00:49.450Z,1.15
2023-07-08T18:03:18.402Z,1.20
2023-07-08T18:05:45.371Z,1.40
2023-07-08T18:08:12.273Z,1.85
2023-07-08T18:10:39.188Z,1.10
2023-07-08T18:13:15.950Z,1.20
2023-07-08T18:15:44.997Z,1.30
2023-07-08T18:18:13.266Z,1.15
2023-07-08T18:20:46.687Z,1.20
2023-07-08T18:23:22.070Z,1.35
2023-07-08T18:25:49.484Z,1.30
2023-07-08T18:28:16.656Z,1.33
2023-07-08T18:30:44.903Z,1.40
2023-07-08T18:33:19.070Z,1.30
2023-07-08T18:35:47.617Z,1.40
2023-07-08T18:38:14.852Z,1.30
2023-07-08T18:40:44.146Z,1.20
2023-07-08T18:43:20.568Z,1.20
2023-07-08T18:45:48.493Z,1.17
2023-07-08T18:48:17.691Z,1.20
2023-07-08T18:50:49.344Z,1.20
2023-07-08T18:53:18.071Z,1.13
2023-07-08T18:55:45.944Z,1.20
2023-07-08T18:58:14.307Z,1.20
2023-07-08T19:00:42.504Z,1.25
2023-07-08T19:03:30.639Z,1.30
2023-07-08T19:05:57.613Z,1.30
2023-07-08T19:08:24.500Z,1.40
2023-07-08T19:10:55.130Z,1.40
2023-07-08T19:13:23.652Z,1.30
2023-07-08T19:15:50.992Z,1.42
2023-07-08T19:18:18.132Z,1.20
2023-07-08T19:20:46.620Z,1.42
2023-07-08T19:23:25.886Z,1.48
2023-07-08T19:25:53.385Z,1.38
2023-07-08T19:28:20.284Z,1.40
2023-07-08T19:30:55.207Z,1.50
2023-07-08T19:33:23.183Z,1.30
2023-07-08T19:35:50.139Z,1.40
2023-07-08T19:38:17.946Z,1.42
2023-07-08T19:40:51.122Z,1.60
2023-07-08T19:43:22.886Z,1.43
2023-07-08T19:45:49.899Z,1.35
2023-07-08T19:48:16.813Z,1.52
2023-07-08T19:50:44.287Z,1.25
2023-07-08T19:53:12.519Z,1.40
2023-07-08T19:55:41.736Z,1.50
2023-07-08T19:58:13.081Z,1.50
2023-07-08T20:00:43.139Z,1.30
2023-07-08T20:03:12.516Z,1.25
2023-07-08T20:05:40.384Z,1.20
2023-07-08T20:08:19.330Z,1.50
2023-07-08T20:10:50.063Z,1.48
2023-07-08T20:13:16.981Z,1.50
2023-07-08T20:15:44.335Z,1.60
2023-07-08T20:18:13.543Z,1.70
2023-07-08T20:20:40.681Z,1.70
2023-07-08T20:23:16.424Z,1.70
2023-07-08T20:25:45.608Z,1.63
2023-07-08T20:28:15.090Z,1.60
2023-07-08T20:30:42.771Z,1.45
2023-07-08T20:33:14.533Z,1.60
2023-07-08T20:35:42.018Z,1.60
2023-07-08T20:38:13.852Z,1.63
2023-07-08T20:40:41.364Z,1.60
2023-07-08T20:43:20.995Z,1.60
2023-07-08T20:45:50.259Z,1.50
2023-07-08T20:48:23.987Z,1.60
2023-07-08T20:50:51.514Z,1.40
2023-07-08T20:53:20.008Z,1.30
2023-07-08T20:55:48.218Z,1.60
2023-07-08T20:58:21.304Z,1.63
2023-07-08T21:00:49.186Z,1.60
2023-07-08T21:03:18.773Z,1.48
2023-07-08T21:05:48.103Z,1.55
2023-07-08T21:08:28.591Z,1.52
2023-07-08T21:10:57.427Z,1.70
2023-07-08T21:13:25.187Z,1.55
2023-07-08T21:15:52.240Z,1.75
2023-07-08T21:18:22.057Z,1.40
2023-07-08T21:20:49.005Z,1.60
2023-07-08T21:23:20.254Z,1.80
2023-07-08T21:25:50.774Z,1.60
2023-07-08T21:28:30.569Z,1.70
2023-07-08T21:30:58.640Z,1.60
2023-07-08T21:33:25.597Z,1.60
2023-07-08T21:35:53.727Z,1.87
2023-07-08T21:38:23.360Z,1.60
2023-07-08T21:40:54.578Z,1.70
2023-07-08T21:43:24.604Z,1.70
2023-07-08T21:45:52.890Z,1.70
2023-07-08T21:48:20.910Z,1.67
2023-07-08T21:50:53.875Z,1.83
2023-07-08T21:53:26.797Z,1.70
2023-07-08T21:55:54.470Z,1.90
2023-07-08T21:58:22.479Z,1.98
2023-07-08T22:00:50.971Z,1.90
2023-07-08T22:03:20.932Z,1.60
2023-07-08T22:05:48.905Z,1.58
2023-07-08T22:08:21.428Z,1.50
2023-07-08T22:10:51.250Z,1.40
2023-07-08T22:13:24.962Z,1.80
2023-07-08T22:15:52.001Z,1.85
2023-07-08T22:18:18.963Z,1.73
2023-07-08T22:20:46.019Z,2.03
2023-07-08T22:23:12.804Z,1.70
2023-07-08T22:25:39.668Z,2.20
2023-07-08T22:28:06.545Z,2.10
2023-07-08T22:30:34.006Z,2.03
2023-07-08T22:33:00.893Z,1.80
2023-07-08T22:35:27.836Z,2.08
2023-07-08T22:37:54.722Z,2.00
2023-07-08T22:40:21.522Z,1.75
2023-07-08T22:42:48.461Z,1.88
2023-07-08T22:45:16.513Z,1.63
2023-07-08T22:47:45.137Z,1.60
2023-07-08T22:50:13.397Z,1.80
2023-07-08T22:52:40.429Z,1.67
2023-07-08T22:55:17.124Z,1.70
2023-07-08T22:57:46.555Z,1.63
2023-07-08T23:00:23.118Z,1.77
2023-07-08T23:02:50.319Z,1.83
2023-07-08T23:05:23.266Z,1.83
2023-07-08T23:07:50.236Z,1.90
2023-07-08T23:10:17.291Z,1.95
2023-07-08T23:12:44.590Z,1.80
2023-07-08T23:15:12.586Z,1.80
2023-07-08T23:17:43.236Z,1.80
2023-07-08T23:20:16.636Z,2.08
2023-07-08T23:22:44.107Z,1.90
2023-07-08T23:25:11.862Z,1.70
2023-07-08T23:27:40.080Z,1.70
2023-07-08T23:30:14.693Z,1.67
2023-07-08T23:32:41.666Z,1.80
2023-07-08T23:35:08.910Z,1.80
2023-07-08T23:37:35.814Z,1.83
2023-07-08T23:40:02.694Z,1.70
2023-07-08T23:42:29.551Z,1.80
2023-07-08T23:44:56.484Z,1.90
2023-07-08T23:47:26.860Z,2.10
2023-07-08T23:49:53.749Z,2.10
2023-07-08T23:52:20.556Z,1.90
2023-07-08T23:54:47.513Z,2.35
2023-07-08T23:57:19.755Z,2.40
2023-07-08T23:59:47.645Z,2.42
